Main page
METAR-TAF:

METAR-TAF

Airports :

MoD Boscombe Down

Boscombe Down, England

latitude: 51-10N, longitude: 001-45W, elevation: 124 m

Current weather observation

The report was made 36 minutes ago, at 23:50 UTC
Wind 16 kt from the West/Southwest
Temperature 4°C
Humidity 81%
Pressure 1019 hPa
Visibility 10 km or more

METAR: EGDM 172350Z AUTO 24016KT 9999 NCD 04/01 Q1019

Time: 00:26 (00:26 UTC)

Forecast

The report was made 10 hours and 56 minutes ago, at 13:30 UTC
Forecast valid from 17 at 15 UTC to 17 at 19 UTC
Wind 15 kt from the West
Visibility 10 km or more
Scattered clouds at a height of 2500 ft
Probability 40% :
Temporary
from 17 at 15 UTC to 17 at 19 UTC
Wind 18 kt from the West with gusts up to 28 kt
Visibility: 7000 m
Scattered clouds at a height of 1800 ft
light rain showers

TAF: EGDM 171330Z 1715/1719 26015KT 9999 SCT025 PROB40 TEMPO 1715/1719 27018G28KT 7000 -SHRA SCT018

Weather observations and forecasts of more than 4000 airports (METAR and TAF reports).

The available stations are represented by yellow and red dots on the map.

Hover mouse over dot to see the name of the station.

Then click to see weather observations and forecasts.

To change the map : click on the green buttons with a black cross to zoom in, on the green button with a dash to zoom out, or on the green arrows for adjacent maps.


METAR-TAF: